Time,TemperatureF,DewpointF,PressureIn,WindDirection,WindDirectionDegrees,WindSpeedMPH,WindSpeedGustMPH,Humidity,HourlyPrecipIn,Conditions,Clouds,dailyrainin,SoftwareType,DateUTC
2013-07-10 00:01:00,72.0,34.0,-100.00,SSW,203,3.0,5.0,25,0.00,,,-99.99,,2013-07-10 06:01:00,
2013-07-10 00:11:00,72.0,34.0,-100.00,SSW,203,3.0,5.0,25,0.00,,,-99.99,,2013-07-10 06:11:00,
2013-07-10 00:21:00,72.0,34.0,-100.00,SSW,203,3.0,5.0,25,0.00,,,-99.99,,2013-07-10 06:21:00,
2013-07-10 00:32:00,72.0,34.0,-100.00,SSW,203,3.0,5.0,25,0.00,,,-99.99,,2013-07-10 06:32:00,
2013-07-10 01:01:00,74.0,39.0,-100.00,SSW,212,8.0,13.0,28,0.00,,,0.00,,2013-07-10 07:01:00,
2013-07-10 01:11:00,74.0,39.0,-100.00,SSW,212,8.0,13.0,28,0.00,,,0.00,,2013-07-10 07:11:00,
2013-07-10 01:22:00,74.0,39.0,-100.00,SSW,212,8.0,13.0,28,0.00,,,0.00,,2013-07-10 07:22:00,
2013-07-10 01:33:00,74.0,39.0,-100.00,SSW,212,8.0,13.0,28,0.00,,,0.00,,2013-07-10 07:33:00,
2013-07-10 02:01:00,72.0,41.0,-100.00,SW,226,5.0,13.0,32,0.00,,,0.00,,2013-07-10 08:01:00,
2013-07-10 02:11:00,72.0,41.0,-100.00,SW,226,5.0,13.0,32,0.00,,,0.00,,2013-07-10 08:11:00,
2013-07-10 02:23:00,72.0,41.0,-100.00,SW,226,5.0,13.0,32,0.00,,,0.00,,2013-07-10 08:23:00,
2013-07-10 02:33:00,72.0,41.0,-100.00,SW,226,5.0,13.0,32,0.00,,,0.00,,2013-07-10 08:33:00,
2013-07-10 03:02:00,66.0,39.0,-100.00,SSW,210,3.0,9.0,37,0.00,,,0.00,,2013-07-10 09:02:00,
2013-07-10 03:12:00,66.0,39.0,-100.00,SSW,210,3.0,9.0,37,0.00,,,0.00,,2013-07-10 09:12:00,
2013-07-10 03:22:00,66.0,39.0,-100.00,SSW,210,3.0,9.0,37,0.00,,,0.00,,2013-07-10 09:22:00,
2013-07-10 03:32:00,66.0,39.0,-100.00,SSW,210,3.0,9.0,37,0.00,,,0.00,,2013-07-10 09:32:00,
2013-07-10 04:01:00,67.0,41.0,-100.00,WSW,240,5.0,10.0,38,0.00,,,0.00,,2013-07-10 10:01:00,
2013-07-10 04:13:00,67.0,41.0,-100.00,WSW,240,5.0,10.0,38,0.00,,,0.00,,2013-07-10 10:13:00,
2013-07-10 04:23:00,67.0,41.0,-100.00,WSW,240,5.0,10.0,38,0.00,,,0.00,,2013-07-10 10:23:00,
2013-07-10 04:32:00,67.0,41.0,-100.00,WSW,240,5.0,10.0,38,0.00,,,0.00,,2013-07-10 10:32:00,
2013-07-10 05:02:00,66.0,41.0,-100.00,WSW,243,6.0,10.0,40,0.00,,,0.00,,2013-07-10 11:02:00,
2013-07-10 05:11:00,66.0,41.0,-100.00,WSW,243,6.0,10.0,40,0.00,,,0.00,,2013-07-10 11:11:00,
2013-07-10 05:22:00,66.0,41.0,-100.00,WSW,243,6.0,10.0,40,0.00,,,0.00,,2013-07-10 11:22:00,
2013-07-10 05:33:00,66.0,41.0,-100.00,WSW,243,6.0,10.0,40,0.00,,,0.00,,2013-07-10 11:33:00,
2013-07-10 08:01:00,71.0,43.0,-100.00,WSW,238,7.0,11.0,37,-99.99,,,0.00,,2013-07-10 14:01:00,
2013-07-10 08:11:00,71.0,43.0,-100.00,WSW,238,7.0,11.0,37,-99.99,,,0.00,,2013-07-10 14:11:00,
2013-07-10 08:22:00,71.0,43.0,-100.00,WSW,238,7.0,11.0,37,-99.99,,,0.00,,2013-07-10 14:22:00,
2013-07-10 08:33:00,71.0,43.0,-100.00,WSW,238,7.0,11.0,37,-99.99,,,0.00,,2013-07-10 14:33:00,
2013-07-10 08:34:00,78.0,47.0,-100.00,WSW,244,8.0,13.0,33,0.00,,,0.00,,2013-07-10 14:34:00,
2013-07-10 09:01:00,78.0,47.0,-100.00,WSW,244,8.0,13.0,33,0.00,,,0.00,,2013-07-10 15:01:00,
2013-07-10 09:11:00,78.0,47.0,-100.00,WSW,244,8.0,13.0,33,0.00,,,0.00,,2013-07-10 15:11:00,
2013-07-10 09:22:00,78.0,47.0,-100.00,WSW,244,8.0,13.0,33,0.00,,,0.00,,2013-07-10 15:22:00,
2013-07-10 10:01:00,82.0,47.0,-100.00,West,262,8.0,13.0,30,0.00,,,0.00,,2013-07-10 16:01:00,
2013-07-10 10:11:00,82.0,47.0,-100.00,West,262,8.0,13.0,30,0.00,,,0.00,,2013-07-10 16:11:00,
2013-07-10 10:22:00,82.0,47.0,-100.00,West,262,8.0,13.0,30,0.00,,,0.00,,2013-07-10 16:22:00,
2013-07-10 10:33:00,82.0,47.0,-100.00,West,262,8.0,13.0,30,0.00,,,0.00,,2013-07-10 16:33:00,
2013-07-10 11:02:00,85.0,46.0,-100.00,WSW,252,8.0,14.0,26,0.00,,,0.00,,2013-07-10 17:02:00,
2013-07-10 11:11:00,85.0,46.0,-100.00,WSW,252,8.0,14.0,26,0.00,,,0.00,,2013-07-10 17:11:00,
2013-07-10 11:23:00,85.0,46.0,-100.00,WSW,252,8.0,14.0,26,0.00,,,0.00,,2013-07-10 17:23:00,
2013-07-10 11:32:00,85.0,46.0,-100.00,WSW,252,8.0,14.0,26,0.00,,,0.00,,2013-07-10 17:32:00,
2013-07-10 12:02:00,89.0,46.0,-100.00,WNW,287,7.0,16.0,23,0.00,,,0.00,,2013-07-10 18:02:00,
2013-07-10 12:11:00,89.0,46.0,-100.00,WNW,287,7.0,16.0,23,0.00,,,0.00,,2013-07-10 18:11:00,
2013-07-10 12:21:00,89.0,46.0,-100.00,WNW,287,7.0,16.0,23,0.00,,,0.00,,2013-07-10 18:21:00,
2013-07-10 12:32:00,89.0,46.0,-100.00,WNW,287,7.0,16.0,23,0.00,,,0.00,,2013-07-10 18:32:00,
2013-07-10 13:01:00,91.0,43.0,-100.00,West,264,7.0,15.0,19,0.00,,,0.00,,2013-07-10 19:01:00,
2013-07-10 13:11:00,91.0,43.0,-100.00,West,264,7.0,15.0,19,0.00,,,0.00,,2013-07-10 19:11:00,
2013-07-10 13:21:00,91.0,43.0,-100.00,West,264,7.0,15.0,19,0.00,,,0.00,,2013-07-10 19:21:00,
2013-07-10 13:32:00,91.0,43.0,-100.00,West,264,7.0,15.0,19,0.00,,,0.00,,2013-07-10 19:32:00,
2013-07-10 14:01:00,93.0,43.0,-100.00,NW,324,8.0,16.0,18,0.00,,,0.00,,2013-07-10 20:01:00,
2013-07-10 14:11:00,93.0,43.0,-100.00,NW,324,8.0,16.0,18,0.00,,,0.00,,2013-07-10 20:11:00,
2013-07-10 14:22:00,93.0,43.0,-100.00,NW,324,8.0,16.0,18,0.00,,,0.00,,2013-07-10 20:22:00,
2013-07-10 14:32:00,93.0,43.0,-100.00,NW,324,8.0,16.0,18,0.00,,,0.00,,2013-07-10 20:32:00,
2013-07-10 15:01:00,94.0,39.0,-100.00,East,91,6.0,15.0,15,0.00,,,0.00,,2013-07-10 21:01:00,
2013-07-10 15:11:00,94.0,39.0,-100.00,East,91,6.0,15.0,15,0.00,,,0.00,,2013-07-10 21:11:00,
2013-07-10 15:22:00,94.0,39.0,-100.00,East,91,6.0,15.0,15,0.00,,,0.00,,2013-07-10 21:22:00,
2013-07-10 15:32:00,94.0,39.0,-100.00,East,91,6.0,15.0,15,0.00,,,0.00,,2013-07-10 21:32:00,
2013-07-10 16:01:00,90.0,38.0,-100.00,NNE,29,6.0,15.0,16,0.00,,,0.00,,2013-07-10 22:01:00,
2013-07-10 16:11:00,90.0,38.0,-100.00,NNE,29,6.0,15.0,16,0.00,,,0.00,,2013-07-10 22:11:00,
2013-07-10 16:21:00,90.0,38.0,-100.00,NNE,29,6.0,15.0,16,0.00,,,0.00,,2013-07-10 22:21:00,
2013-07-10 16:33:00,90.0,38.0,-100.00,NNE,29,6.0,15.0,16,0.00,,,0.00,,2013-07-10 22:33:00,
2013-07-10 16:34:00,90.0,39.0,-100.00,South,183,2.0,11.0,17,0.00,,,0.00,,2013-07-10 22:34:00,
2013-07-10 17:01:00,90.0,39.0,-100.00,South,183,2.0,11.0,17,0.00,,,0.00,,2013-07-10 23:01:00,
2013-07-10 17:11:00,90.0,39.0,-100.00,South,183,2.0,11.0,17,0.00,,,0.00,,2013-07-10 23:11:00,
2013-07-10 17:22:00,90.0,39.0,-100.00,South,183,2.0,11.0,17,0.00,,,0.00,,2013-07-10 23:22:00,
2013-07-10 17:32:00,90.0,39.0,-100.00,South,183,2.0,11.0,17,0.00,,,0.00,,2013-07-10 23:32:00,
2013-07-10 18:01:00,92.0,41.0,-100.00,South,177,3.0,9.0,17,0.00,,,0.00,,2013-07-11 00:01:00,
2013-07-10 18:11:00,92.0,41.0,-100.00,South,177,3.0,9.0,17,0.00,,,0.00,,2013-07-11 00:11:00,
2013-07-10 18:22:00,92.0,41.0,-100.00,South,177,3.0,9.0,17,0.00,,,0.00,,2013-07-11 00:22:00,
2013-07-10 18:32:00,92.0,41.0,-100.00,South,177,3.0,9.0,17,0.00,,,0.00,,2013-07-11 00:32:00,
2013-07-10 19:01:00,82.0,42.0,-100.00,WSW,254,12.0,20.0,24,0.00,,,0.00,,2013-07-11 01:01:00,
2013-07-10 19:11:00,82.0,42.0,-100.00,WSW,254,12.0,20.0,24,0.00,,,0.00,,2013-07-11 01:11:00,
2013-07-10 19:22:00,82.0,42.0,-100.00,WSW,254,12.0,20.0,24,0.00,,,0.00,,2013-07-11 01:22:00,
2013-07-10 19:32:00,82.0,42.0,-100.00,WSW,254,12.0,20.0,24,0.00,,,0.00,,2013-07-11 01:32:00,
2013-07-10 20:02:00,78.0,48.0,-100.00,WSW,252,12.0,25.0,35,0.00,,,0.00,,2013-07-11 02:02:00,
2013-07-10 20:11:00,78.0,48.0,-100.00,WSW,252,12.0,25.0,35,0.00,,,0.00,,2013-07-11 02:11:00,
2013-07-10 20:22:00,78.0,48.0,-100.00,WSW,252,12.0,25.0,35,0.00,,,0.00,,2013-07-11 02:22:00,
2013-07-10 20:32:00,78.0,48.0,-100.00,WSW,252,12.0,25.0,35,0.00,,,0.00,,2013-07-11 02:32:00,
2013-07-10 21:01:00,71.0,51.0,-100.00,SW,232,13.0,22.0,49,0.00,,,0.00,,2013-07-11 03:01:00,
2013-07-10 21:11:00,71.0,51.0,-100.00,SW,232,13.0,22.0,49,0.00,,,0.00,,2013-07-11 03:11:00,
2013-07-10 21:21:00,71.0,51.0,-100.00,SW,232,13.0,22.0,49,0.00,,,0.00,,2013-07-11 03:21:00,
2013-07-10 21:33:00,71.0,51.0,-100.00,SW,232,13.0,22.0,49,0.00,,,0.00,,2013-07-11 03:33:00,
2013-07-10 22:01:00,69.0,50.0,-100.00,WSW,243,9.0,20.0,50,0.00,,,0.00,,2013-07-11 04:01:00,
2013-07-10 22:12:00,69.0,50.0,-100.00,WSW,243,9.0,20.0,50,0.00,,,0.00,,2013-07-11 04:12:00,
2013-07-10 22:22:00,69.0,50.0,-100.00,WSW,243,9.0,20.0,50,0.00,,,0.00,,2013-07-11 04:22:00,
2013-07-10 22:32:00,69.0,50.0,-100.00,WSW,243,9.0,20.0,50,0.00,,,0.00,,2013-07-11 04:32:00,
2013-07-10 23:01:00,67.0,48.0,-100.00,SW,229,8.0,14.0,50,0.00,,,0.00,,2013-07-11 05:01:00,
2013-07-10 23:12:00,67.0,48.0,-100.00,SW,229,8.0,14.0,50,0.00,,,0.00,,2013-07-11 05:12:00,
2013-07-10 23:22:00,67.0,48.0,-100.00,SW,229,8.0,14.0,50,0.00,,,0.00,,2013-07-11 05:22:00,
2013-07-10 23:32:00,67.0,48.0,-100.00,SW,229,8.0,14.0,50,0.00,,,0.00,,2013-07-11 05:32:00,